• Join FlightAware (Why Join?)
  • Login
  • US Flag 
11:43PM EDT


 

Airport Tracker/Info


-or-


 

Live Flight TrackerFlight Track Log ✈ ASQ5745 ✈ 09-Jul-2013 ✈ KIAD - KALB

Flight Track Log - Related Links

Times and Time Zones

All times are in EDT time to prevent confusion due to time zone crossing. See the ASQ5745 flight status page for this flight to view local times or setup timezone preferences in your user account.

Time Position Orientation Groundspeed Altitude Reporting Facility
EDT Latitude Longitude Course Direction KTS MPH feet Rate Location/Type
08:23AM 38.9500 -77.5000 North 165 190 1,400  Level Potomac TRACON
08:24AM 38.9833 -77.5500 311° West 234 269 2,800 1,980 Climbing Potomac TRACON
08:25AM 39.0500 -77.5833 339° North 272 313 5,400 2,400 Climbing Potomac TRACON
08:27AM 39.3010 -77.4500 North  Level FlightAware Approximate
08:27AM 39.2056 -77.5711 North 305 351 10,000  Level Washington Center
08:28AM 39.3929 -77.4500 North  Level FlightAware Approximate
08:28AM 39.2892 -77.5653 North 305 351 12,400  Level Washington Center
08:29AM 39.3708 -77.5433 12° North 300 345 14,400 1,920 Climbing Washington Center
08:30AM 39.4503 -77.5158 15° North 305 351 16,200 1,380 Climbing Washington Center
08:32AM 39.6383 -77.4569 14° North 312 359 18,900 1,200 Climbing New York Center
08:33AM 39.7367 -77.4531 North 312 359 20,100 1,200 Climbing New York Center
08:34AM 39.8244 -77.4100 21° North 318 366 21,400 1,260 Climbing New York Center
08:35AM 39.9128 -77.3614 23° Northeast 329 379 22,700 1,260 Climbing New York Center
08:36AM 40.0028 -77.3158 21° North 336 387 23,900 1,200 Climbing New York Center
08:37AM 40.0950 -77.2700 21° North 341 392 25,100 1,140 Climbing New York Center
08:38AM 40.1725 -77.2256 24° Northeast 341 392 26,200 900 Climbing New York Center
08:39AM 40.2606 -77.1794 22° Northeast 341 392 27,000 360 Climbing New York Center
08:40AM 40.3528 -77.1281 23° Northeast 346 398 27,000  Level New York Center
08:41AM 40.4453 -77.0792 22° Northeast 346 398 27,000  Level New York Center
08:42AM 40.5375 -77.0303 22° Northeast 346 398 27,000  Level New York Center
08:43AM 40.6256 -76.9808 23° Northeast 346 398 27,000  Level New York Center
08:44AM 40.7133 -76.9342 22° Northeast 341 392 27,000  Level New York Center
08:45AM 40.7992 -76.8897 21° North 341 392 27,000  Level New York Center
08:46AM 40.8869 -76.8428 22° Northeast 341 392 27,000  Level New York Center
08:47AM 40.9728 -76.7953 23° Northeast 341 392 27,000  Level New York Center
08:48AM 41.0583 -76.7481 23° Northeast 336 387 27,000  Level New York Center
08:49AM 41.1419 -76.7031 22° Northeast 331 381 27,000  Level New York Center
08:50AM 41.2297 -76.6581 21° North 331 381 27,000  Level New York Center
08:51AM 41.3153 -76.6103 23° Northeast 331 381 27,000  Level New York Center
08:52AM 41.4011 -76.5625 23° Northeast 326 375 27,000 -120 Level New York Center
08:53AM 41.4972 -76.5128 21° North 326 375 26,800 -480 Descending New York Center
08:54AM 41.5828 -76.4644 23° Northeast 326 375 26,100 -720 Descending New York Center
08:55AM 41.6686 -76.4136 24° Northeast 326 375 25,400 -720 Descending New York Center
08:56AM 41.7561 -76.3653 22° Northeast 326 375 24,700 -720 Descending New York Center
08:57AM 41.8417 -76.3197 22° Northeast 326 375 24,000 -240 Descending New York Center
09:00AM 42.0292 -76.2108 23° Northeast 339 390 24,000  Level Boston Center
09:01AM 42.1142 -76.1628 23° Northeast 333 383 24,000  Level Boston Center
09:02AM 42.1794 -76.0769 44° Northeast 326 375 24,000  Level Boston Center
09:03AM 42.2228 -75.9589 64° Northeast 323 372 24,000  Level Boston Center
09:04AM 42.2619 -75.8406 66° East 328 377 24,000 -300 Level Boston Center
09:05AM 42.3028 -75.7275 64° Northeast 333 383 23,500 -900 Descending Boston Center
09:06AM 42.3458 -75.6033 65° Northeast 344 396 22,300 -1,380 Descending Boston Center
09:07AM 42.3867 -75.4844 65° Northeast 344 396 20,800 -1,440 Descending Boston Center
09:08AM 42.4211 -75.3625 69° East 344 396 19,500 -1,380 Descending Boston Center
09:09AM 42.4242 -75.2389 88° East 327 376 18,100 -1,320 Descending Boston Center
09:10AM 42.4253 -75.1150 89° East 333 383 16,900 -1,380 Descending Boston Center
09:11AM 42.4300 -74.9942 87° East 328 377 15,400 -1,500 Descending Boston Center
09:12AM 42.4347 -74.8792 87° East 323 372 14,000 -1,560 Descending Boston Center
09:12AM 42.4344 -74.7919 90° East 310 357 12,900 -1,560 Descending Boston Center
09:13AM 42.4408 -74.6767 86° East 305 351 11,500 -960 Descending Boston Center
09:14AM 42.4431 -74.5642 88° East 301 346 11,000 -300 Descending Boston Center
09:15AM 42.4453 -74.4489 88° East 306 352 11,000 -420 Level Boston Center
09:16AM 42.4742 -74.3344 71° East 289 333 10,200 -780 Descending Boston Center
09:17AM 42.4883 -74.2281 80° East 286 329 9,500 -1,260 Descending Boston Center
09:18AM 42.5047 -74.1186 78° East 291 335 7,700 -1,740 Descending Boston Center
09:19AM 42.5228 -74.0147 77° East 287 330 6,000 -1,680 Descending Boston Center
09:20AM 42.5367 -73.9136 79° East 281 323 4,300 -1,500 Descending Boston Center
09:21AM 42.5544 -73.8269 74° East 227 261 3,000 -1,320 Descending Boston Center